Time;durP1;ratioP1;P1;durP2;ratioP2;P2;SDS_P1;SDS_P2;PMS_P1;PMS_P2;Temp;Humidity;BMP_temperature;BMP_pressure;BME280_temperature;BME280_humidity;BME280_pressure;Samples;Min_cycle;Max_cycle;Signal;HPM_P1;HPM_P2
2023/09/30 00:00:20;;;;;;;;;;;;;;;21.81;59.84;100388.44;5052932;27;96745;-78
2023/09/30 00:02:45;;;;;;;;;;;;;;;21.78;nan;100390.50;5032513;27;96974;-78
2023/09/30 00:05:10;;;;;;;;;;;;;;;21.75;60.11;100388.94;5051654;27;101097;-78
2023/09/30 00:07:36;;;;;;;;;;;;;;;21.73;60.44;100401.59;5053180;27;97744;-78
2023/09/30 00:10:03;;;;;;;;;;;;;;;21.70;60.44;100394.66;5052593;27;96820;-78
2023/09/30 00:12:28;;;;;;;;;;;;;;;21.69;60.62;100400.97;5035074;27;96844;-78
2023/09/30 00:14:54;;;;;;;;;;;;;;;21.72;60.75;100396.34;5052026;27;97757;-78
2023/09/30 00:17:19;;;;;;;;;;;;;;;21.72;60.93;100396.34;5035046;27;97507;-78
2023/09/30 00:19:44;;;;;;;;;;;;;;;21.69;61.31;100389.44;5021575;27;96790;-79
2023/09/30 00:22:10;;;;;;;;;;;;;;;21.68;61.36;100401.09;5054192;27;96795;-78
2023/09/30 00:24:35;;;;;;;;;;;;;;;21.68;61.45;100407.28;5040056;27;100822;-78
2023/09/30 00:27:01;;;;;;;;;;;;;;;21.69;61.82;100400.09;5050168;27;97277;-78
2023/09/30 00:29:26;;;;;;;;;;;;;;;21.70;61.65;100400.00;5051872;27;96725;-80
2023/09/30 00:31:52;;;;;;;;;;;;;;;21.73;61.72;100411.41;5051594;27;96984;-81
2023/09/30 00:34:17;;;;;;;;;;;;;;;21.73;62.20;100409.59;5052317;27;98070;-79
2023/09/30 00:36:42;;;;;;;;;;;;;;;21.75;62.24;100399.63;5052044;27;97401;-79
2023/09/30 00:39:09;;;;;;;;;;;;;;;21.75;61.43;100404.13;5035518;27;96717;-79
2023/09/30 00:41:34;;;;;;;;;;;;;;;21.78;60.89;100396.69;5053096;27;96772;-79
2023/09/30 00:44:01;;;;;;;;;;;;;;;21.80;61.54;100397.44;5053302;27;97986;-78
2023/09/30 00:46:30;;;;;;;;;;;;;;;21.83;61.97;100401.69;5051914;27;97868;-79
2023/09/30 00:48:55;;;;;;;;;;;;;;;;;;5035378;27;96788;-79
2023/09/30 00:51:21;;;;;;;;;;;;;;;21.82;62.64;100410.69;5051855;27;96617;-78
2023/09/30 00:53:46;;;;;;;;;;;;;;;21.84;62.66;100398.03;5051784;27;97971;-79
2023/09/30 00:56:12;;;;;;;;;;;;;;;21.84;62.88;100404.22;5034891;27;101470;-79
2023/09/30 00:58:38;;;;;;;;;;;;;;;21.86;62.85;100404.97;5053262;27;96736;-78
2023/09/30 01:01:03;;;;;;;;;;;;;;;21.87;62.90;100408.47;5034911;27;97204;-78
2023/09/30 01:03:29;;;;;;;;;;;;;;;21.87;62.91;100405.81;5051225;27;97898;-78
2023/09/30 01:05:54;;;;;;;;;;;;;;;21.86;62.93;100406.78;5051632;27;97755;-78
2023/09/30 01:08:19;;;;;;;;;;;;;;;21.85;62.66;100411.28;5052874;27;96800;-78
2023/09/30 01:10:45;;;;;;;;;;;;;;;21.87;62.54;100405.81;5052322;27;96876;-78
2023/09/30 01:13:11;;;;;;;;;;;;;;;21.86;62.45;100418.31;5033696;27;100567;-78
2023/09/30 01:15:36;;;;;;;;;;;;;;;21.88;62.13;100410.19;5034630;27;97886;-78
2023/09/30 01:18:03;;;;;;;;;;;;;;;21.93;61.76;100418.66;5050747;27;96832;-81
2023/09/30 01:20:28;;;;;;;;;;;;;;;21.91;61.84;100423.31;5054605;27;97205;-79
2023/09/30 01:22:55;;;;;;;;;;;;;;;21.92;62.04;100422.31;5037728;27;98144;-79
2023/09/30 01:25:20;;;;;;;;;;;;;;;21.92;61.87;100419.66;5054443;27;97902;-79
2023/09/30 01:27:46;;;;;;;;;;;;;;;21.93;61.43;100418.66;5020883;27;97326;-78
2023/09/30 01:30:13;;;;;;;;;;;;;;;21.93;61.36;100419.56;5055110;27;96806;-78
2023/09/30 01:32:39;;;;;;;;;;;;;;;21.93;61.37;100424.88;5037611;27;98505;-78
2023/09/30 01:35:04;;;;;;;;;;;;;;;21.98;61.28;100423.66;5055049;27;97885;-78
2023/09/30 01:37:30;;;;;;;;;;;;;;;21.96;61.46;100428.28;5050363;27;96778;-78
2023/09/30 01:39:55;;;;;;;;;;;;;;;21.97;61.65;100421.97;5055163;27;96858;-78
2023/09/30 01:42:21;;;;;;;;;;;;;;;21.97;61.81;100424.66;5019754;27;100978;-78
2023/09/30 01:44:46;;;;;;;;;;;;;;;21.96;61.45;100422.94;5041373;27;97748;-78
2023/09/30 01:47:12;;;;;;;;;;;;;;;21.98;61.29;100431.69;5052098;27;96843;-78
2023/09/30 01:49:37;;;;;;;;;;;;;;;21.98;60.84;100435.19;5055265;27;97022;-81
2023/09/30 01:52:03;;;;;;;;;;;;;;;21.98;60.79;100429.00;5053642;27;100853;-79
2023/09/30 01:54:28;;;;;;;;;;;;;;;21.98;60.52;100432.53;5036427;27;101320;-79
2023/09/30 01:56:54;;;;;;;;;;;;;;;22.03;60.21;100434.84;5029527;27;96816;-78
2023/09/30 01:59:19;;;;;;;;;;;;;;;22.01;60.05;100442.13;5056501;27;96903;-79
2023/09/30 02:01:45;;;;;;;;;;;;;;;22.01;59.93;100436.78;5036486;27;100961;-78
2023/09/30 02:04:12;;;;;;;;;;;;;;;22.00;59.92;100445.78;5054506;27;96910;-78
2023/09/30 02:06:37;;;;;;;;;;;;;;;22.01;59.95;100447.47;5053323;27;96864;-79
2023/09/30 02:09:04;;;;;;;;;;;;;;;22.01;59.81;100440.28;5054914;27;96822;-79
2023/09/30 02:11:30;;;;;;;;;;;;;;;22.00;59.71;100441.28;5036720;27;101067;-78
2023/09/30 02:13:55;;;;;;;;;;;;;;;21.99;59.92;100436.03;5030324;27;101491;-78
2023/09/30 02:16:21;;;;;;;;;;;;;;;21.97;59.96;100433.50;5053801;27;96789;-78
2023/09/30 02:18:50;;;;;;;;;;;;;;;21.97;59.81;100438.00;5037601;27;96928;-79
2023/09/30 02:21:16;;;;;;;;;;;;;;;21.95;59.85;100434.59;5036518;27;100943;-79
2023/09/30 02:23:41;;;;;;;;;;;;;;;21.96;59.86;100438.97;5053609;27;97848;-78
2023/09/30 02:26:06;;;;;;;;;;;;;;;21.91;60.13;100440.19;5054350;27;96723;-78
2023/09/30 02:28:34;;;;;;;;;;;;;;;21.91;60.04;100437.50;5036856;27;96756;-78
2023/09/30 02:31:02;;;;;;;;;;;;;;;21.93;59.90;100445.41;5052046;27;98144;-78
2023/09/30 02:33:27;;;;;;;;;;;;;;;21.93;59.85;100440.94;5036302;27;97239;-81
2023/09/30 02:35:53;;;;;;;;;;;;;;;21.93;59.71;100440.94;5055168;27;97258;-79
2023/09/30 02:38:20;;;;;;;;;;;;;;;21.94;59.82;100441.78;5041729;27;96878;-78
2023/09/30 02:40:48;;;;;;;;;;;;;;;21.96;59.81;100434.47;5052607;27;98671;-78
2023/09/30 02:43:13;;;;;;;;;;;;;;;21.96;59.68;100445.16;5054514;27;97824;-78
2023/09/30 02:45:39;;;;;;;;;;;;;;;21.96;59.72;100449.66;5053966;27;96789;-78
2023/09/30 02:48:06;;;;;;;;;;;;;;;21.98;59.69;100453.06;5055464;27;96900;-78
2023/09/30 02:50:31;;;;;;;;;;;;;;;21.98;59.73;100461.06;5054759;27;97657;-78
2023/09/30 02:52:59;;;;;;;;;;;;;;;21.97;59.73;100460.22;5054287;27;98314;-78
2023/09/30 02:55:24;;;;;;;;;;;;;;;21.97;59.80;100456.72;5052541;27;96821;-79
2023/09/30 02:57:50;;;;;;;;;;;;;;;21.96;60.02;100457.66;5036257;27;97298;-78
2023/09/30 03:00:25;;;;;;;;;;;;;;;21.96;60.06;100455.84;5054928;27;98093;-78
2023/09/30 03:02:54;;;;;;;;;;;;;;;21.96;60.06;100455.84;5052754;27;101461;-78
2023/09/30 03:05:20;;;;;;;;;;;;;;;21.93;60.11;100456.09;5053589;27;96812;-78
2023/09/30 03:07:45;;;;;;;;;;;;;;;21.91;60.26;100456.22;5046624;27;96828;-78
2023/09/30 03:10:12;;;;;;;;;;;;;;;21.91;60.25;100453.56;5019434;27;101342;-78
2023/09/30 03:12:38;;;;;;;;;;;;;;;21.88;60.16;100451.13;5054305;27;98720;-81
2023/09/30 03:15:04;;;;;;;;;;;;;;;21.87;60.15;100453.91;5054749;27;96857;-78
2023/09/30 03:17:31;;;;;;;;;;;;;;;21.87;60.12;100454.75;5053315;27;96950;-78
2023/09/30 03:19:57;;;;;;;;;;;;;;;21.85;60.26;100463.88;5052677;27;97570;-78
2023/09/30 03:22:23;;;;;;;;;;;;;;;21.84;60.50;100468.34;5054835;27;97786;-79
2023/09/30 03:24:48;;;;;;;;;;;;;;;21.82;60.25;100467.66;5054201;27;96640;-80
2023/09/30 03:27:15;;;;;;;;;;;;;;;21.80;60.49;100468.72;5052781;27;96877;-79
2023/09/30 03:29:40;;;;;;;;;;;;;;;21.74;60.32;100478.06;5054168;27;97897;-78
2023/09/30 03:32:06;;;;;;;;;;;;;;;21.72;60.22;100481.84;5052393;27;97905;-79
2023/09/30 03:34:31;;;;;;;;;;;;;;;21.68;60.43;100483.91;5040190;27;96754;-80
2023/09/30 03:36:58;;;;;;;;;;;;;;;21.68;60.52;100484.75;5044354;27;96957;-79
2023/09/30 03:39:27;;;;;;;;;;;;;;;21.63;60.71;100480.72;5052262;27;97426;-79
2023/09/30 03:41:54;;;;;;;;;;;;;;;21.60;60.61;100486.31;5051861;27;97689;-78
2023/09/30 03:44:19;;;;;;;;;;;;;;;21.60;60.59;100494.31;5035442;27;96806;-78
2023/09/30 03:46:45;;;;;;;;;;;;;;;21.59;60.74;100501.50;5035741;27;96926;-78
2023/09/30 03:49:10;;;;;;;;;;;;;;;21.58;60.70;100501.59;5035774;27;100814;-79
2023/09/30 03:51:37;;;;;;;;;;;;;;;21.58;60.54;100506.94;5053430;27;97570;-78
2023/09/30 03:54:02;;;;;;;;;;;;;;;21.55;60.67;100510.69;5053828;27;96753;-78
2023/09/30 03:56:28;;;;;;;;;;;;;;;21.55;60.68;100507.19;5052703;27;97345;-78
2023/09/30 03:58:53;;;;;;;;;;;;;;;21.55;60.55;100510.69;5054015;27;97398;-80
2023/09/30 04:01:19;;;;;;;;;;;;;;;21.54;60.54;100517.00;5052816;27;97245;-78
2023/09/30 04:03:44;;;;;;;;;;;;;;;21.51;60.56;100524.41;5052247;27;96839;-79
2023/09/30 04:06:10;;;;;;;;;;;;;;;21.45;60.86;100529.25;5035743;27;96851;-79
2023/09/30 04:08:36;;;;;;;;;;;;;;;21.50;60.73;100523.56;5051768;27;97411;-79
2023/09/30 04:11:03;;;;;;;;;;;;;;;21.51;60.58;100522.59;5053832;27;97297;-78
2023/09/30 04:13:29;;;;;;;;;;;;;;;21.54;60.57;100522.34;5053688;27;97138;-78
2023/09/30 04:15:54;;;;;;;;;;;;;;;21.57;60.52;100529.28;5052846;27;96902;-78
2023/09/30 04:18:22;;;;;;;;;;;;;;;21.58;60.44;100525.63;5053278;27;97533;-78
2023/09/30 04:20:48;;;;;;;;;;;;;;;21.59;60.45;100522.84;5035055;27;101232;-78
2023/09/30 04:23:13;;;;;;;;;;;;;;;21.59;60.48;100527.34;5051639;27;96776;-78
2023/09/30 04:25:39;;;;;;;;;;;;;;;21.58;60.59;100537.16;5054226;27;98650;-79
2023/09/30 04:28:05;;;;;;;;;;;;;;;21.56;60.47;100540.94;5051903;27;97422;-79
2023/09/30 04:30:32;;;;;;;;;;;;;;;21.50;60.61;100541.38;5034815;27;100990;-78
2023/09/30 04:32:58;;;;;;;;;;;;;;;21.44;60.82;100548.91;5052441;27;96725;-78
2023/09/30 04:35:25;;;;;;;;;;;;;;;21.42;60.73;100550.00;5053468;27;96733;-79
2023/09/30 04:37:51;;;;;;;;;;;;;;;21.39;60.78;100550.22;5051583;27;100975;-78
2023/09/30 04:40:19;;;;;;;;;;;;;;;21.39;60.68;100543.06;5053369;27;97462;-79
2023/09/30 04:42:46;;;;;;;;;;;;;;;21.38;60.78;100552.06;5035234;27;97314;-79
2023/09/30 04:45:12;;;;;;;;;;;;;;;21.37;60.89;100547.66;5052299;27;97280;-78
2023/09/30 04:47:38;;;;;;;;;;;;;;;21.36;60.82;100564.66;5051870;27;97450;-78
2023/09/30 04:50:07;;;;;;;;;;;;;;;21.32;61.05;100565.84;5052719;27;97336;-79
2023/09/30 04:52:33;;;;;;;;;;;;;;;21.28;61.12;100564.34;5050762;27;97592;-78
2023/09/30 04:54:59;;;;;;;;;;;;;;;21.27;61.31;100569.81;5053336;27;96990;-79
2023/09/30 04:57:26;;;;;;;;;;;;;;;21.24;61.19;100565.56;5054467;27;97384;-79
2023/09/30 04:59:51;;;;;;;;;;;;;;;21.25;61.12;100576.09;5038424;27;100856;-78
2023/09/30 05:02:16;;;;;;;;;;;;;;;21.22;61.28;100580.81;5038018;27;97376;-79
2023/09/30 05:04:45;;;;;;;;;;;;;;;21.22;61.14;100587.00;5055964;27;96967;-78
2023/09/30 05:07:12;;;;;;;;;;;;;;;21.20;61.29;100591.59;5054795;27;97303;-78
2023/09/30 05:09:38;;;;;;;;;;;;;;;21.21;61.33;100595.16;5038246;27;97354;-79
2023/09/30 05:12:04;;;;;;;;;;;;;;;21.16;61.65;100599.97;5056421;27;96726;-78
2023/09/30 05:14:29;;;;;;;;;;;;;;;21.20;61.51;100602.28;5057395;27;96740;-79
2023/09/30 05:16:56;;;;;;;;;;;;;;;21.18;61.57;100604.22;5054401;27;100849;-79
2023/09/30 05:19:21;;;;;;;;;;;;;;;21.25;61.53;100605.47;5038428;27;96911;-80
2023/09/30 05:21:47;;;;;;;;;;;;;;;21.27;61.55;100609.88;5055872;27;96768;-78
2023/09/30 05:24:12;;;;;;;;;;;;;;;21.30;61.51;100609.63;5054830;27;97195;-79
2023/09/30 05:26:38;;;;;;;;;;;;;;;21.37;61.26;100616.25;5037318;27;97455;-79
2023/09/30 05:29:03;;;;;;;;;;;;;;;21.44;60.99;100625.50;5056944;27;97230;-79
2023/09/30 05:31:29;;;;;;;;;;;;;;;21.45;61.00;100630.72;5056132;27;96740;-79
2023/09/30 05:33:55;;;;;;;;;;;;;;;21.45;61.09;100627.22;5056804;27;96928;-79
2023/09/30 05:36:21;;;;;;;;;;;;;;;21.51;61.06;100633.91;5051637;27;97424;-79
2023/09/30 05:38:47;;;;;;;;;;;;;;;21.59;61.21;100642.19;5051808;27;97230;-78
2023/09/30 05:41:14;;;;;;;;;;;;;;;21.62;60.72;100636.63;5056571;27;97073;-79
2023/09/30 05:43:39;;;;;;;;;;;;;;;21.58;60.84;100644.00;5054613;27;96851;-79
2023/09/30 05:46:06;;;;;;;;;;;;;;;21.54;60.93;100650.56;5054119;27;96916;-79
2023/09/30 05:48:31;;;;;;;;;;;;;;;21.53;61.23;100653.34;5054442;27;97404;-79
2023/09/30 05:50:57;;;;;;;;;;;;;;;21.52;61.35;100649.81;5054713;27;96745;-78
2023/09/30 05:53:22;;;;;;;;;;;;;;;21.45;61.53;100649.41;5055501;27;97161;-78
2023/09/30 05:55:48;;;;;;;;;;;;;;;21.39;61.54;100652.53;5054111;27;97956;-78
2023/09/30 05:58:15;;;;;;;;;;;;;;;21.49;61.38;100650.03;5054576;27;97352;-80
2023/09/30 06:00:41;;;;;;;;;;;;;;;21.56;61.33;100647.78;5036416;27;96739;-79
2023/09/30 06:03:07;;;;;;;;;;;;;;;21.65;60.88;100653.28;5055872;27;96941;-79
2023/09/30 06:05:33;;;;;;;;;;;;;;;21.55;61.31;100654.91;5054182;27;98060;-79
2023/09/30 06:08:00;;;;;;;;;;;;;;;21.53;61.41;100661.38;5039956;27;97730;-79
2023/09/30 06:10:25;;;;;;;;;;;;;;;21.53;61.40;100656.88;5037612;27;96787;-79
2023/09/30 06:12:58;;;;;;;;;;;;;;;21.51;61.49;100660.63;5036904;27;96943;-78
2023/09/30 06:15:25;;;;;;;;;;;;;;;21.30;61.86;100679.03;5037050;27;101443;-80
2023/09/30 06:17:51;;;;;;;;;;;;;;;21.20;61.97;100684.19;5053469;27;97529;-79
2023/09/30 06:20:17;;;;;;;;;;;;;;;21.26;61.51;100678.41;5053690;27;96873;-78
2023/09/30 06:22:47;;;;;;;;;;;;;;;21.23;60.91;100689.31;5053739;27;97009;-78
2023/09/30 06:25:13;;;;;;;;;;;;;;;21.06;60.42;100700.34;5036256;27;97497;-79
2023/09/30 06:27:39;;;;;;;;;;;;;;;21.08;59.93;100714.44;5054025;27;97891;-79
2023/09/30 06:30:05;;;;;;;;;;;;;;;20.95;59.82;100717.13;5056584;27;97529;-79
2023/09/30 06:32:30;;;;;;;;;;;;;;;21.06;59.44;100735.03;5055048;27;97194;-80
2023/09/30 06:34:55;;;;;;;;;;;;;;;21.08;59.30;100725.13;5053277;27;97394;-79
2023/09/30 06:37:21;;;;;;;;;;;;;;;20.95;58.96;100735.81;5050805;27;97375;-79
2023/09/30 06:39:48;;;;;;;;;;;;;;;20.86;58.46;100744.47;5054369;27;96824;-79
2023/09/30 06:42:13;;;;;;;;;;;;;;;20.84;58.24;100749.06;5053267;27;96888;-78
2023/09/30 06:44:38;;;;;;;;;;;;;;;20.87;58.29;100752.38;5055203;27;97304;-78
2023/09/30 06:47:04;;;;;;;;;;;;;;;20.93;58.01;100756.41;5036125;27;97373;-79
2023/09/30 06:49:30;;;;;;;;;;;;;;;20.95;57.90;100766.03;5037130;27;96846;-80
2023/09/30 06:51:56;;;;;;;;;;;;;;;20.82;57.90;100764.31;5055358;27;97148;-78
2023/09/30 06:54:21;;;;;;;;;;;;;;;20.73;57.92;100773.81;5052780;27;97662;-79
2023/09/30 06:56:46;;;;;;;;;;;;;;;20.73;58.14;100772.00;5035911;27;98552;-79
2023/09/30 06:59:12;;;;;;;;;;;;;;;20.78;58.10;100772.53;5053555;27;97444;-79
2023/09/30 07:01:37;;;;;;;;;;;;;;;20.77;58.06;100775.31;5053157;27;97384;-79
2023/09/30 07:04:03;;;;;;;;;;;;;;;20.82;58.05;100785.66;5036265;27;101682;-78
2023/09/30 07:06:28;;;;;;;;;;;;;;;20.80;57.72;100783.97;5052909;27;97728;-78
2023/09/30 07:08:54;;;;;;;;;;;;;;;20.80;57.59;100791.13;5054073;27;96778;-79
2023/09/30 07:11:37;;;;;;;;;;;;;;;20.73;57.73;100792.47;5054342;27;96904;-79
2023/09/30 07:14:03;;;;;;;;;;;;;;;20.73;57.86;100801.34;5053565;27;98572;-80
2023/09/30 07:16:28;;;;;;;;;;;;;;;20.77;57.51;100800.19;5050196;27;98768;-79
2023/09/30 07:18:53;;;;;;;;;;;;;;;20.87;57.17;100808.38;5053184;27;96756;-79
2023/09/30 07:21:19;;;;;;;;;;;;;;;20.89;57.30;100805.63;5054399;27;96852;-78
2023/09/30 07:23:44;;;;;;;;;;;;;;;20.90;57.32;100818.00;5053873;27;97985;-79
2023/09/30 07:26:10;;;;;;;;;;;;;;;20.92;57.10;100824.94;5052952;27;98439;-81
2023/09/30 07:28:35;;;;;;;;;;;;;;;20.71;57.03;100827.28;5053069;27;96792;-79
2023/09/30 07:31:00;;;;;;;;;;;;;;;20.76;56.87;100840.28;5054506;27;96867;-79
2023/09/30 07:33:26;;;;;;;;;;;;;;;20.72;56.89;100846.81;5054057;27;97260;-78
2023/09/30 07:35:51;;;;;;;;;;;;;;;20.77;56.78;100853.53;5035489;27;100283;-80
2023/09/30 07:38:17;;;;;;;;;;;;;;;20.78;56.90;100855.22;5051412;27;97203;-78
2023/09/30 07:40:43;;;;;;;;;;;;;;;20.70;57.27;100859.38;5024705;27;97058;-78
2023/09/30 07:43:08;;;;;;;;;;;;;;;20.64;56.92;100865.13;5018328;27;101246;-78
2023/09/30 07:45:34;;;;;;;;;;;;;;;20.54;56.79;100859.56;5035527;27;100442;-78
2023/09/30 07:47:59;;;;;;;;;;;;;;;20.68;56.21;100858.63;5035421;27;96717;-78
2023/09/30 07:50:24;;;;;;;;;;;;;;;20.69;55.41;100861.19;5053588;27;96932;-81
2023/09/30 07:52:50;;;;;;;;;;;;;;;20.73;54.53;100857.34;5034837;27;100810;-79
2023/09/30 07:55:15;;;;;;;;;;;;;;;20.84;54.19;100853.09;5051974;27;100625;-79
2023/09/30 07:57:42;;;;;;;;;;;;;;;20.97;52.99;100854.84;5052188;27;96821;-79
2023/09/30 08:00:09;;;;;;;;;;;;;;;21.26;52.33;100849.25;5052923;27;96905;-79
2023/09/30 08:02:36;;;;;;;;;;;;;;;21.91;50.75;100850.88;5045811;27;101733;-80
2023/09/30 08:05:02;;;;;;;;;;;;;;;24.55;45.14;100844.44;5025443;27;99280;-78
2023/09/30 08:07:27;;;;;;;;;;;;;;;29.60;35.98;100846.81;5052285;27;97753;-79
2023/09/30 08:09:52;;;;;;;;;;;;;;;33.35;30.77;100850.03;5052586;27;96897;-79
2023/09/30 08:12:19;;;;;;;;;;;;;;;35.95;26.78;100858.56;5052804;27;97485;-79
2023/09/30 08:14:44;;;;;;;;;;;;;;;38.23;24.01;100849.81;5051970;27;97335;-79
2023/09/30 08:17:10;;;;;;;;;;;;;;;39.44;22.17;100848.50;5052600;27;96777;-80
2023/09/30 08:19:36;;;;;;;;;;;;;;;40.33;21.31;100859.78;5052811;27;97168;-80
2023/09/30 08:22:02;;;;;;;;;;;;;;;40.98;19.89;100853.38;5051652;27;97556;-81
2023/09/30 08:24:28;;;;;;;;;;;;;;;40.98;20.51;100860.78;5052042;27;97547;-79
2023/09/30 08:26:55;;;;;;;;;;;;;;;40.60;20.51;100862.06;5051745;27;96759;-80
2023/09/30 08:29:21;;;;;;;;;;;;;;;37.29;23.65;100868.53;5056203;27;96858;-82
2023/09/30 08:31:46;;;;;;;;;;;;;;;37.89;23.51;100854.63;5055189;27;97657;-80
2023/09/30 08:34:14;;;;;;;;;;;;;;;39.27;21.97;100872.09;5055951;27;97281;-80
2023/09/30 08:36:40;;;;;;;;;;;;;;;37.20;22.93;100878.03;5048874;27;97200;-80
2023/09/30 08:39:05;;;;;;;;;;;;;;;34.38;25.65;100882.69;5031197;27;97661;-80
2023/09/30 08:41:32;;;;;;;;;;;;;;;33.47;26.97;100901.25;5055519;27;97334;-81
2023/09/30 08:43:59;;;;;;;;;;;;;;;32.84;27.53;100897.97;5054142;27;97598;-79
2023/09/30 08:46:24;;;;;;;;;;;;;;;37.64;22.91;100894.78;5055450;27;97568;-79
2023/09/30 08:48:50;;;;;;;;;;;;;;;41.79;19.13;100903.88;5055847;27;97321;-80
2023/09/30 08:51:16;;;;;;;;;;;;;;;42.63;18.07;100897.75;5054346;27;97324;-81
2023/09/30 08:53:41;;;;;;;;;;;;;;;44.72;16.44;100904.22;5054851;27;97203;-81
2023/09/30 08:56:10;;;;;;;;;;;;;;;43.13;17.65;100905.16;5054488;27;97451;-82
2023/09/30 08:58:35;;;;;;;;;;;;;;;45.88;15.72;100909.81;5054842;27;97640;-82
2023/09/30 09:01:01;;;;;;;;;;;;;;;46.41;14.91;100911.34;5053437;27;97445;-81
2023/09/30 09:03:27;;;;;;;;;;;;;;;46.83;14.72;100910.22;5053812;27;97818;-81
2023/09/30 09:05:55;;;;;;;;;;;;;;;41.58;18.62;100910.91;5054532;27;97147;-82
2023/09/30 09:08:23;;;;;;;;;;;;;;;41.37;18.08;100915.13;5034202;27;96730;-80
2023/09/30 09:10:56;;;;;;;;;;;;;;;44.48;15.75;100921.19;5051134;27;97698;-82
2023/09/30 09:13:21;;;;;;;;;;;;;;;46.27;14.41;100922.16;5038299;27;100874;-82
2023/09/30 09:15:47;;;;;;;;;;;;;;;48.48;13.34;100923.09;5029663;27;96830;-81
2023/09/30 09:18:14;;;;;;;;;;;;;;;48.95;13.25;100934.69;5047548;27;96841;-81
2023/09/30 09:20:39;;;;;;;;;;;;;;;50.10;12.13;100931.03;5050217;27;98047;-80
2023/09/30 09:23:05;;;;;;;;;;;;;;;51.28;11.53;100925.06;5053422;27;97693;-81
2023/09/30 09:25:30;;;;;;;;;;;;;;;51.18;11.95;100917.72;5036214;27;97112;-83
2023/09/30 09:27:56;;;;;;;;;;;;;;;49.12;12.76;100931.44;5053806;27;97194;-82
2023/09/30 09:30:22;;;;;;;;;;;;;;;47.08;13.71;100931.59;5046858;27;97462;-82
2023/09/30 09:32:54;;;;;;;;;;;;;;;44.68;15.65;100926.03;5053252;27;97211;-81
2023/09/30 09:35:22;;;;;;;;;;;;;;;40.21;18.86;100927.63;5054987;27;96675;-80
2023/09/30 09:37:54;;;;;;;;;;;;;;;37.96;21.32;100923.09;5054312;27;97082;-79
2023/09/30 09:40:22;;;;;;;;;;;;;;;36.47;22.66;100924.50;5053576;27;101799;-79
2023/09/30 09:42:50;;;;;;;;;;;;;;;38.51;20.69;100934.41;5033995;28;97248;-80
2023/09/30 09:45:16;;;;;;;;;;;;;;;39.51;19.73;100928.06;5052213;27;97174;-80
2023/09/30 09:47:41;;;;;;;;;;;;;;;42.90;16.91;100932.97;5054545;27;96910;-80
2023/09/30 09:50:07;;;;;;;;;;;;;;;40.92;18.18;100934.97;5054010;27;97440;-80
2023/09/30 09:52:33;;;;;;;;;;;;;;;39.94;18.94;100925.25;5053917;27;97653;-80
2023/09/30 09:54:59;;;;;;;;;;;;;;;39.22;19.65;100938.69;5054235;27;96813;-80
2023/09/30 09:57:25;;;;;;;;;;;;;;;37.00;21.58;100930.03;5054137;27;96940;-80
2023/09/30 09:59:51;;;;;;;;;;;;;;;34.66;23.64;100935.41;5055973;27;97383;-80
2023/09/30 10:02:17;;;;;;;;;;;;;;;33.33;25.44;100943.75;5050054;27;97443;-81
2023/09/30 10:04:46;;;;;;;;;;;;;;;32.90;26.08;100952.47;5044196;27;96789;-80
2023/09/30 10:07:16;;;;;;;;;;;;;;;32.39;26.72;100949.41;5054383;27;97308;-81
2023/09/30 10:09:45;;;;;;;;;;;;;;;31.67;27.56;100951.44;5054028;27;97607;-80
2023/09/30 10:12:10;;;;;;;;;;;;;;;31.35;27.92;100947.78;5042004;27;97691;-79
2023/09/30 10:14:36;;;;;;;;;;;;;;;31.58;28.00;100931.63;5054026;27;97646;-79
2023/09/30 10:17:03;;;;;;;;;;;;;;;31.41;28.29;100938.94;5055537;27;96785;-81
2023/09/30 10:19:30;;;;;;;;;;;;;;;31.15;28.53;100930.16;5054022;27;97605;-79
2023/09/30 10:22:14;;;;;;;;;;;;;;;30.83;28.38;100943.56;5049179;27;98035;-79
2023/09/30 10:24:39;;;;;;;;;;;;;;;30.25;29.36;100939.06;5053566;27;96756;-81
2023/09/30 10:27:24;;;;;;;;;;;;;;;29.74;29.23;100941.75;5036530;27;97162;-79
2023/09/30 10:30:02;;;;;;;;;;;;;;;29.38;30.01;100938.31;5055400;27;98132;-79
2023/09/30 10:32:53;;;;;;;;;;;;;;;29.07;30.17;100948.75;5040967;27;97825;-79
2023/09/30 10:35:38;;;;;;;;;;;;;;;28.77;30.38;100952.66;5053824;27;96817;-80
2023/09/30 10:38:22;;;;;;;;;;;;;;;28.45;31.27;100951.38;5052728;27;96947;-79
2023/09/30 10:40:51;;;;;;;;;;;;;;;28.51;31.36;100955.28;5039236;27;101557;-79
2023/09/30 10:43:43;;;;;;;;;;;;;;;28.40;31.45;100962.59;5053067;27;97277;-80
2023/09/30 10:46:23;;;;;;;;;;;;;;;28.39;31.49;100958.19;5050295;27;96901;-79
2023/09/30 10:48:49;;;;;;;;;;;;;;;28.12;31.54;100959.06;5055153;27;96866;-79
2023/09/30 10:51:15;;;;;;;;;;;;;;;27.97;31.81;100968.66;5053250;27;97948;-80
2023/09/30 10:53:45;;;;;;;;;;;;;;;27.82;31.68;100962.91;5033647;27;97884;-80
2023/09/30 10:56:10;;;;;;;;;;;;;;;27.77;31.71;100966.00;5036398;27;96719;-79
2023/09/30 10:58:42;;;;;;;;;;;;;;;27.79;31.85;100968.59;5036748;27;97100;-79
2023/09/30 11:01:07;;;;;;;;;;;;;;;27.88;32.26;100964.16;5053960;27;98471;-79
2023/09/30 11:03:33;;;;;;;;;;;;;;;27.79;31.53;100967.75;5052619;27;97430;-79
2023/09/30 11:05:59;;;;;;;;;;;;;;;27.75;31.06;100976.13;5052980;27;96755;-79
2023/09/30 11:08:24;;;;;;;;;;;;;;;27.26;31.55;100971.88;5053752;27;96844;-80
2023/09/30 11:10:51;;;;;;;;;;;;;;;27.18;32.03;100980.66;5052916;27;98171;-79
2023/09/30 11:13:19;;;;;;;;;;;;;;;27.20;32.53;100985.88;5036759;27;100448;-81
2023/09/30 11:15:45;;;;;;;;;;;;;;;27.04;33.30;100981.91;5048290;27;96743;-79
2023/09/30 11:18:14;;;;;;;;;;;;;;;27.02;33.06;100977.66;5036736;27;96977;-79
2023/09/30 11:20:40;;;;;;;;;;;;;;;26.94;32.79;100991.00;5052419;27;98043;-79
2023/09/30 11:23:06;;;;;;;;;;;;;;;26.84;33.15;100985.59;5054371;27;97239;-79
2023/09/30 11:25:34;;;;;;;;;;;;;;;26.84;32.94;100980.22;5054498;27;98777;-79
2023/09/30 11:28:19;;;;;;;;;;;;;;;26.72;33.24;100976.81;5053176;27;96872;-79
2023/09/30 11:30:57;;;;;;;;;;;;;;;26.64;32.83;100982.06;5052014;27;98110;-79
2023/09/30 11:33:22;;;;;;;;;;;;;;;26.43;32.97;100982.13;5052793;27;99537;-81
2023/09/30 11:36:05;;;;;;;;;;;;;;;26.24;33.60;100976.69;5048331;27;96845;-79
2023/09/30 11:38:31;;;;;;;;;;;;;;;26.53;33.35;100987.56;5052855;27;96881;-80
2023/09/30 11:41:06;;;;;;;;;;;;;;;26.36;33.93;100978.31;5052304;27;97561;-79
2023/09/30 11:43:32;;;;;;;;;;;;;;;26.72;33.37;100970.59;5052558;27;98854;-80
2023/09/30 11:46:05;;;;;;;;;;;;;;;26.83;33.00;100978.53;5052646;27;96772;-79
2023/09/30 11:48:31;;;;;;;;;;;;;;;26.83;33.05;100970.44;5054580;27;96845;-80
2023/09/30 11:50:56;;;;;;;;;;;;;;;26.77;32.77;100971.03;5035154;27;97944;-78
2023/09/30 11:53:22;;;;;;;;;;;;;;;26.77;32.79;100974.56;5034797;27;100792;-79
2023/09/30 11:55:47;;;;;;;;;;;;;;;26.66;33.60;100974.69;5053277;27;96780;-78
2023/09/30 11:58:18;;;;;;;;;;;;;;;26.69;33.39;100974.41;5054244;27;97145;-78
2023/09/30 12:00:43;;;;;;;;;;;;;;;26.63;33.41;100974.97;5053612;27;97428;-79
2023/09/30 12:03:10;;;;;;;;;;;;;;;26.58;33.35;100980.75;5052603;27;97255;-79
2023/09/30 12:05:36;;;;;;;;;;;;;;;26.41;33.34;100973.34;5052278;27;96832;-79
2023/09/30 12:08:02;;;;;;;;;;;;;;;26.41;33.45;100976.03;5054142;27;96849;-81
2023/09/30 12:10:28;;;;;;;;;;;;;;;26.20;33.61;100976.13;5053457;27;97456;-79
2023/09/30 12:12:53;;;;;;;;;;;;;;;25.95;33.94;100981.03;5052502;27;97086;-78
2023/09/30 12:15:21;;;;;;;;;;;;;;;25.79;34.06;100977.94;5054008;27;97055;-79
2023/09/30 12:17:47;;;;;;;;;;;;;;;25.65;34.13;100976.44;5052248;27;96995;-80
2023/09/30 12:20:15;;;;;;;;;;;;;;;25.60;34.45;100973.34;5052684;27;97447;-80
2023/09/30 12:22:40;;;;;;;;;;;;;;;25.51;35.09;100974.13;5018237;27;100861;-78
2023/09/30 12:25:08;;;;;;;;;;;;;;;25.45;34.77;100963.91;5053275;27;96828;-79
2023/09/30 12:27:33;;;;;;;;;;;;;;;25.03;35.67;100972.78;5053700;27;96826;-78
2023/09/30 12:29:59;;;;;;;;;;;;;;;25.01;35.34;100974.75;5051338;27;101270;-78
2023/09/30 12:32:26;;;;;;;;;;;;;;;24.88;35.87;100975.94;5053159;27;97159;-78